sensor_id;sensor_type;location;lat;lon;timestamp;pressure;altitude;pressure_sealevel;temperature;humidity
38616;BME280;24370;51.986;4.666;2023-04-24T00:00:00;99989.88;;;15.03;77.51
38616;BME280;24370;51.986;4.666;2023-04-24T00:02:26;99983.25;;;16.15;72.96
38616;BME280;24370;51.986;4.666;2023-04-24T00:04:51;99984.31;;;16.30;71.91
38616;BME280;24370;51.986;4.666;2023-04-24T00:07:17;99982.78;;;17.67;64.83
38616;BME280;24370;51.986;4.666;2023-04-24T00:09:43;99978.19;;;18.04;61.36
38616;BME280;24370;51.986;4.666;2023-04-24T00:12:09;99982.38;;;17.41;63.85
38616;BME280;24370;51.986;4.666;2023-04-24T00:14:35;99978.97;;;18.22;59.75
38616;BME280;24370;51.986;4.666;2023-04-24T00:17:01;99993.19;;;17.70;62.62
38616;BME280;24370;51.986;4.666;2023-04-24T00:19:27;99987.00;;;17.87;63.09
38616;BME280;24370;51.986;4.666;2023-04-24T00:21:53;99982.03;;;18.14;59.87
38616;BME280;24370;51.986;4.666;2023-04-24T00:24:20;99995.00;;;18.03;61.67
38616;BME280;24370;51.986;4.666;2023-04-24T00:26:45;99988.34;;;18.12;61.66
38616;BME280;24370;51.986;4.666;2023-04-24T00:29:10;99984.53;;;17.33;65.68
38616;BME280;24370;51.986;4.666;2023-04-24T00:31:36;100000.34;;;15.87;69.54
38616;BME280;24370;51.986;4.666;2023-04-24T00:34:02;99982.69;;;17.35;66.58
38616;BME280;24370;51.986;4.666;2023-04-24T00:36:28;99987.19;;;17.16;66.09
38616;BME280;24370;51.986;4.666;2023-04-24T00:38:54;99988.47;;;17.42;62.75
38616;BME280;24370;51.986;4.666;2023-04-24T00:41:19;99986.50;;;17.12;65.64
38616;BME280;24370;51.986;4.666;2023-04-24T00:43:46;99993.97;;;16.48;67.95
38616;BME280;24370;51.986;4.666;2023-04-24T00:46:12;99990.16;;;17.27;64.86
38616;BME280;24370;51.986;4.666;2023-04-24T00:48:39;99994.34;;;15.83;71.55
38616;BME280;24370;51.986;4.666;2023-04-24T00:51:05;99991.81;;;16.20;71.71
38616;BME280;24370;51.986;4.666;2023-04-24T00:53:30;99993.50;;;16.95;66.16
38616;BME280;24370;51.986;4.666;2023-04-24T00:55:56;100006.19;;;16.13;69.16
38616;BME280;24370;51.986;4.666;2023-04-24T00:58:22;99996.81;;;16.99;67.48
38616;BME280;24370;51.986;4.666;2023-04-24T01:00:49;99997.28;;;17.25;68.12
38616;BME280;24370;51.986;4.666;2023-04-24T01:03:19;99991.47;;;17.36;64.71
38616;BME280;24370;51.986;4.666;2023-04-24T01:05:45;99991.94;;;16.36;68.50
38616;BME280;24370;51.986;4.666;2023-04-24T01:08:11;99982.47;;;16.68;65.45
38616;BME280;24370;51.986;4.666;2023-04-24T01:10:38;99989.56;;;16.85;66.67
38616;BME280;24370;51.986;4.666;2023-04-24T01:13:06;99985.59;;;17.64;62.08
38616;BME280;24370;51.986;4.666;2023-04-24T01:15:32;99987.59;;;17.08;63.42
38616;BME280;24370;51.986;4.666;2023-04-24T01:17:58;99994.00;;;17.55;64.05
38616;BME280;24370;51.986;4.666;2023-04-24T01:20:24;99993.09;;;17.03;65.83
38616;BME280;24370;51.986;4.666;2023-04-24T01:22:51;99986.41;;;16.96;66.61
38616;BME280;24370;51.986;4.666;2023-04-24T01:25:17;99984.97;;;17.08;64.41
38616;BME280;24370;51.986;4.666;2023-04-24T01:27:43;99996.78;;;16.07;68.70
38616;BME280;24370;51.986;4.666;2023-04-24T01:30:09;99988.41;;;16.91;67.25
38616;BME280;24370;51.986;4.666;2023-04-24T01:32:36;99988.25;;;17.64;62.24
38616;BME280;24370;51.986;4.666;2023-04-24T01:35:02;99990.00;;;17.30;62.08
38616;BME280;24370;51.986;4.666;2023-04-24T01:37:28;99988.34;;;17.78;61.25
38616;BME280;24370;51.986;4.666;2023-04-24T01:39:53;99993.28;;;18.66;56.65
38616;BME280;24370;51.986;4.666;2023-04-24T01:42:19;99992.22;;;17.38;61.24
38616;BME280;24370;51.986;4.666;2023-04-24T01:44:44;99986.97;;;18.05;58.36
38616;BME280;24370;51.986;4.666;2023-04-24T01:47:10;99997.38;;;17.74;61.92
38616;BME280;24370;51.986;4.666;2023-04-24T01:49:38;99989.72;;;18.35;58.36
38616;BME280;24370;51.986;4.666;2023-04-24T01:52:05;99991.50;;;16.26;67.34
38616;BME280;24370;51.986;4.666;2023-04-24T01:54:30;99995.13;;;16.98;63.29
38616;BME280;24370;51.986;4.666;2023-04-24T01:56:55;99992.84;;;16.54;65.44
38616;BME280;24370;51.986;4.666;2023-04-24T01:59:21;99994.66;;;16.15;68.25
38616;BME280;24370;51.986;4.666;2023-04-24T02:01:48;99982.63;;;17.19;62.97
38616;BME280;24370;51.986;4.666;2023-04-24T02:04:13;99989.81;;;17.84;59.96
38616;BME280;24370;51.986;4.666;2023-04-24T02:06:40;99994.53;;;15.78;66.36
38616;BME280;24370;51.986;4.666;2023-04-24T02:09:05;99990.69;;;16.99;64.09
38616;BME280;24370;51.986;4.666;2023-04-24T02:11:31;99992.97;;;15.74;70.33
38616;BME280;24370;51.986;4.666;2023-04-24T02:13:56;99986.09;;;16.29;66.97
38616;BME280;24370;51.986;4.666;2023-04-24T02:16:22;99978.75;;;16.72;65.51
38616;BME280;24370;51.986;4.666;2023-04-24T02:18:47;99986.22;;;16.82;63.78
38616;BME280;24370;51.986;4.666;2023-04-24T02:21:12;99986.47;;;17.29;61.81
38616;BME280;24370;51.986;4.666;2023-04-24T02:23:38;99981.88;;;17.84;58.86
38616;BME280;24370;51.986;4.666;2023-04-24T02:26:03;99979.78;;;16.87;63.09
38616;BME280;24370;51.986;4.666;2023-04-24T02:28:32;99985.09;;;17.05;63.48
38616;BME280;24370;51.986;4.666;2023-04-24T02:30:57;99990.25;;;17.59;59.86
38616;BME280;24370;51.986;4.666;2023-04-24T02:33:23;99982.06;;;16.95;nan
38616;BME280;24370;51.986;4.666;2023-04-24T02:35:49;99982.00;;;16.60;64.85
38616;BME280;24370;51.986;4.666;2023-04-24T02:38:14;99982.56;;;16.84;62.71
38616;BME280;24370;51.986;4.666;2023-04-24T02:40:39;99981.53;;;18.24;58.36
38616;BME280;24370;51.986;4.666;2023-04-24T02:43:05;99990.19;;;16.54;63.87
38616;BME280;24370;51.986;4.666;2023-04-24T02:45:30;99979.25;;;16.25;66.96
38616;BME280;24370;51.986;4.666;2023-04-24T02:47:55;99986.09;;;16.29;64.58
38616;BME280;24370;51.986;4.666;2023-04-24T02:50:21;99987.84;;;16.84;64.34
38616;BME280;24370;51.986;4.666;2023-04-24T02:52:46;99987.66;;;16.33;67.30
38616;BME280;24370;51.986;4.666;2023-04-24T02:55:12;99989.28;;;17.26;62.34
38616;BME280;24370;51.986;4.666;2023-04-24T02:57:37;99983.94;;;16.18;67.71
38616;BME280;24370;51.986;4.666;2023-04-24T03:00:04;99987.56;;;15.77;68.69
38616;BME280;24370;51.986;4.666;2023-04-24T03:02:32;99991.41;;;15.08;72.84
38616;BME280;24370;51.986;4.666;2023-04-24T03:04:57;99978.69;;;16.74;68.00
38616;BME280;24370;51.986;4.666;2023-04-24T03:07:22;99982.25;;;16.36;66.42
38616;BME280;24370;51.986;4.666;2023-04-24T03:09:49;99988.09;;;15.86;70.08
38616;BME280;24370;51.986;4.666;2023-04-24T03:12:14;99987.59;;;15.57;70.68
38616;BME280;24370;51.986;4.666;2023-04-24T03:14:42;99989.22;;;15.80;68.54
38616;BME280;24370;51.986;4.666;2023-04-24T03:17:07;99993.41;;;15.24;70.59
38616;BME280;24370;51.986;4.666;2023-04-24T03:19:32;99999.44;;;15.26;70.53
38616;BME280;24370;51.986;4.666;2023-04-24T03:21:58;99993.13;;;14.43;73.97
38616;BME280;24370;51.986;4.666;2023-04-24T03:24:23;99999.28;;;15.70;73.24
38616;BME280;24370;51.986;4.666;2023-04-24T03:26:48;99993.75;;;15.76;68.64
38616;BME280;24370;51.986;4.666;2023-04-24T03:29:14;99997.22;;;16.36;64.02
38616;BME280;24370;51.986;4.666;2023-04-24T03:31:39;99995.94;;;15.46;68.90
38616;BME280;24370;51.986;4.666;2023-04-24T03:34:05;99999.94;;;15.55;69.78
38616;BME280;24370;51.986;4.666;2023-04-24T03:36:30;99996.78;;;15.47;69.78
38616;BME280;24370;51.986;4.666;2023-04-24T03:38:56;99995.53;;;16.16;65.11
38616;BME280;24370;51.986;4.666;2023-04-24T03:41:22;100004.22;;;15.57;68.23
38616;BME280;24370;51.986;4.666;2023-04-24T03:43:47;100002.94;;;16.63;64.10
38616;BME280;24370;51.986;4.666;2023-04-24T03:46:13;100014.66;;;16.00;64.92
38616;BME280;24370;51.986;4.666;2023-04-24T03:48:38;100001.97;;;17.02;63.25
38616;BME280;24370;51.986;4.666;2023-04-24T03:51:03;100016.94;;;15.68;68.38
38616;BME280;24370;51.986;4.666;2023-04-24T03:53:29;100010.19;;;16.02;67.40
38616;BME280;24370;51.986;4.666;2023-04-24T03:55:55;100009.19;;;16.05;68.16
38616;BME280;24370;51.986;4.666;2023-04-24T03:58:20;99996.19;;;17.11;63.71
38616;BME280;24370;51.986;4.666;2023-04-24T04:00:46;99997.13;;;16.93;62.54
38616;BME280;24370;51.986;4.666;2023-04-24T04:03:13;99998.34;;;17.89;59.15
38616;BME280;24370;51.986;4.666;2023-04-24T04:05:39;99999.84;;;17.77;57.59
38616;BME280;24370;51.986;4.666;2023-04-24T04:08:05;99997.22;;;18.27;55.62
38616;BME280;24370;51.986;4.666;2023-04-24T04:10:30;99997.66;;;18.19;55.00
38616;BME280;24370;51.986;4.666;2023-04-24T04:12:56;100010.41;;;17.77;57.29
38616;BME280;24370;51.986;4.666;2023-04-24T04:15:21;100012.94;;;17.63;57.59
38616;BME280;24370;51.986;4.666;2023-04-24T04:17:47;100022.97;;;17.56;57.63
38616;BME280;24370;51.986;4.666;2023-04-24T04:20:12;100018.53;;;17.57;59.69
38616;BME280;24370;51.986;4.666;2023-04-24T04:22:38;100018.22;;;17.80;57.87
38616;BME280;24370;51.986;4.666;2023-04-24T04:25:04;100031.91;;;16.26;63.85
38616;BME280;24370;51.986;4.666;2023-04-24T04:27:30;100033.09;;;17.81;58.17
38616;BME280;24370;51.986;4.666;2023-04-24T04:29:58;100032.38;;;17.62;57.70
38616;BME280;24370;51.986;4.666;2023-04-24T04:32:26;100028.63;;;18.33;56.35
38616;BME280;24370;51.986;4.666;2023-04-24T04:34:51;100043.81;;;18.13;55.78
38616;BME280;24370;51.986;4.666;2023-04-24T04:37:18;100050.84;;;17.79;58.75
38616;BME280;24370;51.986;4.666;2023-04-24T04:39:44;100055.22;;;18.14;57.03
38616;BME280;24370;51.986;4.666;2023-04-24T04:42:09;100056.72;;;18.02;56.00
38616;BME280;24370;51.986;4.666;2023-04-24T04:44:34;100052.25;;;16.99;61.18
38616;BME280;24370;51.986;4.666;2023-04-24T04:47:01;100055.91;;;17.14;60.46
38616;BME280;24370;51.986;4.666;2023-04-24T04:49:29;100055.22;;;17.63;59.62
38616;BME280;24370;51.986;4.666;2023-04-24T04:51:54;100061.13;;;16.98;58.37
38616;BME280;24370;51.986;4.666;2023-04-24T04:54:19;100075.72;;;15.91;68.53
38616;BME280;24370;51.986;4.666;2023-04-24T04:56:45;100072.31;;;15.25;71.08
38616;BME280;24370;51.986;4.666;2023-04-24T04:59:10;100086.72;;;15.17;74.45
38616;BME280;24370;51.986;4.666;2023-04-24T05:01:36;100099.06;;;15.99;72.65
38616;BME280;24370;51.986;4.666;2023-04-24T05:04:01;100102.25;;;15.01;78.10
38616;BME280;24370;51.986;4.666;2023-04-24T05:06:27;100115.63;;;14.00;82.57
38616;BME280;24370;51.986;4.666;2023-04-24T05:08:52;100122.94;;;14.64;78.95
38616;BME280;24370;51.986;4.666;2023-04-24T05:11:22;100133.97;;;14.27;82.27
38616;BME280;24370;51.986;4.666;2023-04-24T05:13:47;100138.06;;;13.85;87.39
38616;BME280;24370;51.986;4.666;2023-04-24T05:16:13;100141.50;;;13.87;85.94
38616;BME280;24370;51.986;4.666;2023-04-24T05:18:38;100138.81;;;14.14;83.80
38616;BME280;24370;51.986;4.666;2023-04-24T05:21:04;100156.06;;;14.21;84.17
38616;BME280;24370;51.986;4.666;2023-04-24T05:23:29;100156.28;;;14.15;86.27
38616;BME280;24370;51.986;4.666;2023-04-24T05:25:55;100175.97;;;14.52;83.57
38616;BME280;24370;51.986;4.666;2023-04-24T05:28:20;100175.59;;;13.88;84.86
38616;BME280;24370;51.986;4.666;2023-04-24T05:30:46;100186.75;;;13.95;86.75
38616;BME280;24370;51.986;4.666;2023-04-24T05:33:11;100196.88;;;13.54;90.30
38616;BME280;24370;51.986;4.666;2023-04-24T05:35:36;100204.22;;;13.69;87.10
38616;BME280;24370;51.986;4.666;2023-04-24T05:38:02;100217.28;;;13.72;83.59
38616;BME280;24370;51.986;4.666;2023-04-24T05:40:28;100219.41;;;13.88;86.36
38616;BME280;24370;51.986;4.666;2023-04-24T05:42:53;100232.06;;;13.75;86.49
38616;BME280;24370;51.986;4.666;2023-04-24T05:45:19;100242.97;;;13.34;88.54
38616;BME280;24370;51.986;4.666;2023-04-24T05:47:44;100239.53;;;14.39;82.72
38616;BME280;24370;51.986;4.666;2023-04-24T05:50:10;100253.00;;;13.50;85.04
38616;BME280;24370;51.986;4.666;2023-04-24T05:52:36;100258.19;;;14.57;79.74
38616;BME280;24370;51.986;4.666;2023-04-24T05:55:01;100270.75;;;12.82;87.13
38616;BME280;24370;51.986;4.666;2023-04-24T05:57:27;100276.72;;;13.17;86.07
38616;BME280;24370;51.986;4.666;2023-04-24T05:59:52;100274.66;;;14.12;80.36
38616;BME280;24370;51.986;4.666;2023-04-24T06:02:17;100285.66;;;12.47;89.00
38616;BME280;24370;51.986;4.666;2023-04-24T06:04:43;100287.94;;;14.59;80.89
38616;BME280;24370;51.986;4.666;2023-04-24T06:07:10;100287.00;;;14.10;79.38
38616;BME280;24370;51.986;4.666;2023-04-24T06:09:36;100306.91;;;13.62;81.67
38616;BME280;24370;51.986;4.666;2023-04-24T06:12:02;100318.22;;;13.92;80.28
38616;BME280;24370;51.986;4.666;2023-04-24T06:14:27;100317.81;;;14.04;81.96
38616;BME280;24370;51.986;4.666;2023-04-24T06:16:53;100319.16;;;14.43;80.55
38616;BME280;24370;51.986;4.666;2023-04-24T06:19:18;100327.16;;;13.58;80.96
38616;BME280;24370;51.986;4.666;2023-04-24T06:21:43;100335.34;;;14.31;76.52
38616;BME280;24370;51.986;4.666;2023-04-24T06:24:09;100343.16;;;13.49;84.17
38616;BME280;24370;51.986;4.666;2023-04-24T06:26:35;100345.81;;;12.86;85.81
38616;BME280;24370;51.986;4.666;2023-04-24T06:29:00;100349.69;;;14.20;79.54
38616;BME280;24370;51.986;4.666;2023-04-24T06:31:25;100373.16;;;13.71;80.19
38616;BME280;24370;51.986;4.666;2023-04-24T06:33:51;100365.25;;;14.55;77.00
38616;BME280;24370;51.986;4.666;2023-04-24T06:36:16;100371.09;;;14.36;80.04
38616;BME280;24370;51.986;4.666;2023-04-24T06:38:42;100384.53;;;13.40;80.91
38616;BME280;24370;51.986;4.666;2023-04-24T06:41:07;100396.38;;;14.14;76.48
38616;BME280;24370;51.986;4.666;2023-04-24T06:43:33;100407.28;;;14.01;78.78
38616;BME280;24370;51.986;4.666;2023-04-24T06:45:59;100401.41;;;13.91;76.69
38616;BME280;24370;51.986;4.666;2023-04-24T06:48:25;100410.88;;;13.69;78.34
38616;BME280;24370;51.986;4.666;2023-04-24T06:50:51;100411.03;;;14.48;73.55
38616;BME280;24370;51.986;4.666;2023-04-24T06:53:16;100417.91;;;14.52;71.06
38616;BME280;24370;51.986;4.666;2023-04-24T06:55:42;100426.47;;;14.03;76.22
38616;BME280;24370;51.986;4.666;2023-04-24T06:58:09;100430.56;;;14.40;70.84
38616;BME280;24370;51.986;4.666;2023-04-24T07:00:35;100431.41;;;14.69;69.73
38616;BME280;24370;51.986;4.666;2023-04-24T07:03:00;100445.09;;;14.24;72.98
38616;BME280;24370;51.986;4.666;2023-04-24T07:05:25;100440.31;;;14.65;70.04
38616;BME280;24370;51.986;4.666;2023-04-24T07:07:51;100440.44;;;14.05;75.71
38616;BME280;24370;51.986;4.666;2023-04-24T07:10:17;100451.22;;;13.33;78.25
38616;BME280;24370;51.986;4.666;2023-04-24T07:12:43;100456.47;;;14.53;70.22
38616;BME280;24370;51.986;4.666;2023-04-24T07:15:09;100480.56;;;13.81;74.25
38616;BME280;24370;51.986;4.666;2023-04-24T07:17:34;100487.84;;;14.59;74.90
38616;BME280;24370;51.986;4.666;2023-04-24T07:20:00;100482.75;;;13.96;76.93
38616;BME280;24370;51.986;4.666;2023-04-24T07:22:26;100490.41;;;14.32;73.50
38616;BME280;24370;51.986;4.666;2023-04-24T07:24:51;100488.50;;;14.66;73.70
38616;BME280;24370;51.986;4.666;2023-04-24T07:27:16;100494.25;;;14.79;73.57
38616;BME280;24370;51.986;4.666;2023-04-24T07:29:42;100495.34;;;14.98;72.15
38616;BME280;24370;51.986;4.666;2023-04-24T07:32:07;100498.06;;;14.68;69.88
38616;BME280;24370;51.986;4.666;2023-04-24T07:34:33;100498.16;;;15.19;67.95
38616;BME280;24370;51.986;4.666;2023-04-24T07:36:58;100505.84;;;13.85;73.02
38616;BME280;24370;51.986;4.666;2023-04-24T07:39:24;100510.09;;;15.29;67.90
38616;BME280;24370;51.986;4.666;2023-04-24T07:41:50;100521.97;;;14.61;68.76
38616;BME280;24370;51.986;4.666;2023-04-24T07:44:15;100525.41;;;14.34;68.16
38616;BME280;24370;51.986;4.666;2023-04-24T07:46:41;100534.38;;;14.27;67.18
38616;BME280;24370;51.986;4.666;2023-04-24T07:49:06;100536.69;;;14.68;67.92
38616;BME280;24370;51.986;4.666;2023-04-24T07:51:31;100536.00;;;14.89;63.44
38616;BME280;24370;51.986;4.666;2023-04-24T07:53:59;100542.09;;;14.03;65.19
38616;BME280;24370;51.986;4.666;2023-04-24T07:56:25;100546.25;;;13.81;66.15
38616;BME280;24370;51.986;4.666;2023-04-24T07:58:50;100544.66;;;14.35;65.30
38616;BME280;24370;51.986;4.666;2023-04-24T08:01:16;100558.97;;;14.26;64.85
38616;BME280;24370;51.986;4.666;2023-04-24T08:03:41;100551.91;;;14.85;63.53
38616;BME280;24370;51.986;4.666;2023-04-24T08:06:06;100561.19;;;14.68;66.23
38616;BME280;24370;51.986;4.666;2023-04-24T08:08:32;100563.81;;;15.23;59.74
38616;BME280;24370;51.986;4.666;2023-04-24T08:10:57;100570.75;;;14.99;59.87
38616;BME280;24370;51.986;4.666;2023-04-24T08:13:23;100595.41;;;14.38;61.49
38616;BME280;24370;51.986;4.666;2023-04-24T08:15:48;100579.63;;;14.38;62.61
38616;BME280;24370;51.986;4.666;2023-04-24T08:18:14;100590.34;;;13.68;61.53
38616;BME280;24370;51.986;4.666;2023-04-24T08:20:41;100591.25;;;14.59;58.46
38616;BME280;24370;51.986;4.666;2023-04-24T08:23:06;100607.25;;;15.10;56.32
38616;BME280;24370;51.986;4.666;2023-04-24T08:25:32;100599.78;;;14.38;57.31
38616;BME280;24370;51.986;4.666;2023-04-24T08:27:57;100609.59;;;14.63;57.11
38616;BME280;24370;51.986;4.666;2023-04-24T08:30:23;100610.25;;;15.26;53.75
38616;BME280;24370;51.986;4.666;2023-04-24T08:32:48;100624.78;;;14.21;57.35
38616;BME280;24370;51.986;4.666;2023-04-24T08:35:14;100629.13;;;13.58;57.50
38616;BME280;24370;51.986;4.666;2023-04-24T08:37:39;100622.75;;;14.63;54.46
38616;BME280;24370;51.986;4.666;2023-04-24T08:40:27;100630.06;;;15.38;52.90
38616;BME280;24370;51.986;4.666;2023-04-24T08:42:56;100639.19;;;14.39;54.19
38616;BME280;24370;51.986;4.666;2023-04-24T08:45:23;100632.63;;;14.23;54.86
38616;BME280;24370;51.986;4.666;2023-04-24T08:47:49;100633.94;;;15.53;51.04
38616;BME280;24370;51.986;4.666;2023-04-24T08:50:17;100639.22;;;15.53;50.08
38616;BME280;24370;51.986;4.666;2023-04-24T08:52:42;100649.59;;;14.74;52.42
38616;BME280;24370;51.986;4.666;2023-04-24T08:55:08;100654.00;;;14.42;53.90
38616;BME280;24370;51.986;4.666;2023-04-24T08:57:34;100655.84;;;14.71;52.21
38616;BME280;24370;51.986;4.666;2023-04-24T09:00:01;100663.84;;;14.35;52.98
38616;BME280;24370;51.986;4.666;2023-04-24T09:02:28;100658.66;;;14.32;53.80
38616;BME280;24370;51.986;4.666;2023-04-24T09:04:55;100651.75;;;15.18;50.92
38616;BME280;24370;51.986;4.666;2023-04-24T09:07:24;100662.91;;;14.69;53.24
38616;BME280;24370;51.986;4.666;2023-04-24T09:09:51;100661.00;;;14.74;51.57
38616;BME280;24370;51.986;4.666;2023-04-24T09:12:17;100661.75;;;15.35;50.86
38616;BME280;24370;51.986;4.666;2023-04-24T09:14:44;100670.56;;;15.05;50.73
38616;BME280;24370;51.986;4.666;2023-04-24T09:17:11;100673.06;;;15.10;51.14
38616;BME280;24370;51.986;4.666;2023-04-24T09:19:36;100672.63;;;14.67;51.93
38616;BME280;24370;51.986;4.666;2023-04-24T09:22:05;100680.22;;;14.14;53.00
38616;BME280;24370;51.986;4.666;2023-04-24T09:24:31;100683.66;;;14.79;51.47
38616;BME280;24370;51.986;4.666;2023-04-24T09:26:58;100693.19;;;15.13;50.25
38616;BME280;24370;51.986;4.666;2023-04-24T09:29:24;100703.56;;;14.56;53.22
38616;BME280;24370;51.986;4.666;2023-04-24T09:31:50;100700.34;;;15.07;52.07
38616;BME280;24370;51.986;4.666;2023-04-24T09:34:21;100707.91;;;15.73;51.42
38616;BME280;24370;51.986;4.666;2023-04-24T09:36:46;100704.44;;;14.56;51.34
38616;BME280;24370;51.986;4.666;2023-04-24T09:39:14;100709.97;;;15.64;50.13
38616;BME280;24370;51.986;4.666;2023-04-24T09:44:27;100711.22;;;15.25;52.30
38616;BME280;24370;51.986;4.666;2023-04-24T09:47:00;100708.78;;;15.19;52.03
38616;BME280;24370;51.986;4.666;2023-04-24T09:49:30;100726.34;;;14.57;54.24
38616;BME280;24370;51.986;4.666;2023-04-24T09:52:03;100722.78;;;15.19;52.99
38616;BME280;24370;51.986;4.666;2023-04-24T09:54:29;100723.91;;;15.40;50.96
38616;BME280;24370;51.986;4.666;2023-04-24T09:56:55;100729.50;;;14.71;51.66
38616;BME280;24370;51.986;4.666;2023-04-24T09:59:21;100733.75;;;15.34;50.33
38616;BME280;24370;51.986;4.666;2023-04-24T10:01:47;100738.56;;;14.91;51.17
38616;BME280;24370;51.986;4.666;2023-04-24T10:04:22;100735.88;;;14.92;48.51
38616;BME280;24370;51.986;4.666;2023-04-24T10:06:50;100734.59;;;15.34;48.26
38616;BME280;24370;51.986;4.666;2023-04-24T10:09:22;100742.72;;;16.10;47.64
38616;BME280;24370;51.986;4.666;2023-04-24T10:11:50;100738.91;;;15.65;48.68
38616;BME280;24370;51.986;4.666;2023-04-24T10:14:18;100762.00;;;15.00;51.52
38616;BME280;24370;51.986;4.666;2023-04-24T10:16:45;100768.34;;;14.27;52.47
38616;BME280;24370;51.986;4.666;2023-04-24T10:19:13;100769.75;;;14.40;56.24
38616;BME280;24370;51.986;4.666;2023-04-24T10:21:39;100776.22;;;14.27;57.50
38616;BME280;24370;51.986;4.666;2023-04-24T10:24:08;100785.78;;;14.96;57.33
38616;BME280;24370;51.986;4.666;2023-04-24T10:26:35;100790.50;;;13.82;60.28
38616;BME280;24370;51.986;4.666;2023-04-24T10:29:01;100785.66;;;13.65;60.78
38616;BME280;24370;51.986;4.666;2023-04-24T10:31:27;100789.81;;;13.35;61.40
38616;BME280;24370;51.986;4.666;2023-04-24T10:33:56;100768.94;;;14.38;58.73
38616;BME280;24370;51.986;4.666;2023-04-24T10:36:24;100762.69;;;15.35;51.73
38616;BME280;24370;51.986;4.666;2023-04-24T10:38:52;100771.91;;;14.59;51.47
38616;BME280;24370;51.986;4.666;2023-04-24T10:41:20;100781.88;;;15.67;50.83
38616;BME280;24370;51.986;4.666;2023-04-24T10:43:48;100775.34;;;14.61;52.23
38616;BME280;24370;51.986;4.666;2023-04-24T10:46:20;100781.66;;;14.87;50.33
38616;BME280;24370;51.986;4.666;2023-04-24T10:48:53;100780.06;;;16.48;47.40
38616;BME280;24370;51.986;4.666;2023-04-24T10:51:22;100784.03;;;16.09;48.17
38616;BME280;24370;51.986;4.666;2023-04-24T10:53:50;100786.91;;;16.54;47.56
38616;BME280;24370;51.986;4.666;2023-04-24T10:56:16;100796.84;;;15.93;49.34
38616;BME280;24370;51.986;4.666;2023-04-24T10:58:49;100790.25;;;16.59;49.67
38616;BME280;24370;51.986;4.666;2023-04-24T11:03:58;100793.47;;;17.16;47.76
38616;BME280;24370;51.986;4.666;2023-04-24T11:06:36;100810.28;;;15.29;49.39
38616;BME280;24370;51.986;4.666;2023-04-24T11:09:07;100821.03;;;15.80;51.19
38616;BME280;24370;51.986;4.666;2023-04-24T11:11:34;100820.25;;;14.19;66.39
38616;BME280;24370;51.986;4.666;2023-04-24T11:19:07;100816.53;;;16.37;55.53
38616;BME280;24370;51.986;4.666;2023-04-24T11:21:48;100820.72;;;16.42;53.39
38616;BME280;24370;51.986;4.666;2023-04-24T11:26:57;100823.25;;;16.45;49.62
38616;BME280;24370;51.986;4.666;2023-04-24T11:37:38;100827.13;;;17.79;44.29
38616;BME280;24370;51.986;4.666;2023-04-24T11:40:05;100852.47;;;16.91;45.03
38616;BME280;24370;51.986;4.666;2023-04-24T11:42:39;100859.94;;;16.26;44.84
38616;BME280;24370;51.986;4.666;2023-04-24T11:45:11;100846.97;;;17.45;43.72
38616;BME280;24370;51.986;4.666;2023-04-24T11:47:38;100850.97;;;17.55;43.87
38616;BME280;24370;51.986;4.666;2023-04-24T11:50:09;100867.50;;;16.10;46.30
38616;BME280;24370;51.986;4.666;2023-04-24T11:52:40;100869.88;;;16.70;44.92
38616;BME280;24370;51.986;4.666;2023-04-24T11:55:27;100870.84;;;16.94;42.67
38616;BME280;24370;51.986;4.666;2023-04-24T11:57:57;100860.91;;;17.49;43.66
38616;BME280;24370;51.986;4.666;2023-04-24T12:00:27;100875.03;;;17.24;43.12
38616;BME280;24370;51.986;4.666;2023-04-24T12:03:06;100880.25;;;16.50;44.32
38616;BME280;24370;51.986;4.666;2023-04-24T12:05:33;100876.06;;;17.67;43.33
38616;BME280;24370;51.986;4.666;2023-04-24T12:07:58;100883.22;;;17.18;42.53
38616;BME280;24370;51.986;4.666;2023-04-24T12:10:26;100887.84;;;16.86;43.96
38616;BME280;24370;51.986;4.666;2023-04-24T12:12:52;100886.31;;;16.00;45.16
38616;BME280;24370;51.986;4.666;2023-04-24T12:15:21;100880.34;;;17.48;44.35
38616;BME280;24370;51.986;4.666;2023-04-24T12:17:47;100899.88;;;16.42;45.66
38616;BME280;24370;51.986;4.666;2023-04-24T12:20:15;100891.81;;;17.46;43.59
38616;BME280;24370;51.986;4.666;2023-04-24T12:22:44;100902.59;;;17.17;42.92
38616;BME280;24370;51.986;4.666;2023-04-24T12:25:11;100899.56;;;16.77;43.35
38616;BME280;24370;51.986;4.666;2023-04-24T12:27:36;100918.69;;;16.58;45.64
38616;BME280;24370;51.986;4.666;2023-04-24T12:30:09;100913.84;;;14.97;49.24
38616;BME280;24370;51.986;4.666;2023-04-24T12:32:41;100918.25;;;15.89;47.80
38616;BME280;24370;51.986;4.666;2023-04-24T12:35:06;100928.59;;;15.97;46.68
38616;BME280;24370;51.986;4.666;2023-04-24T12:37:33;100920.19;;;16.39;46.46
38616;BME280;24370;51.986;4.666;2023-04-24T12:42:31;100919.63;;;16.29;47.02
38616;BME280;24370;51.986;4.666;2023-04-24T12:44:58;100919.75;;;15.98;48.86
38616;BME280;24370;51.986;4.666;2023-04-24T12:47:25;100920.97;;;17.20;45.99
38616;BME280;24370;51.986;4.666;2023-04-24T12:49:51;100917.44;;;17.92;45.51
38616;BME280;24370;51.986;4.666;2023-04-24T12:52:18;100922.38;;;17.30;44.81
38616;BME280;24370;51.986;4.666;2023-04-24T12:54:45;100917.25;;;16.21;45.26
38616;BME280;24370;51.986;4.666;2023-04-24T12:57:10;100919.84;;;17.74;43.26
38616;BME280;24370;51.986;4.666;2023-04-24T12:59:36;100920.94;;;18.14;43.44
38616;BME280;24370;51.986;4.666;2023-04-24T13:02:01;100928.78;;;18.18;43.06
38616;BME280;24370;51.986;4.666;2023-04-24T13:04:27;100924.91;;;18.90;42.46
38616;BME280;24370;51.986;4.666;2023-04-24T13:06:53;100928.25;;;17.38;43.17
38616;BME280;24370;51.986;4.666;2023-04-24T13:09:18;100930.63;;;17.21;42.65
38616;BME280;24370;51.986;4.666;2023-04-24T13:11:43;100940.13;;;16.74;42.50